Time;durP1;ratioP1;P1;durP2;ratioP2;P2;SDS_P1;SDS_P2;PMS_P1;PMS_P2;Temp;Humidity;BMP_temperature;BMP_pressure;BME280_temperature;BME280_humidity;BME280_pressure;Samples;Min_cycle;Max_cycle;Signal;HPM_P1;HPM_P2
2024/01/19 00:01:18;;;;;;;12.20;2.15;;;;;;;;;;5118119;28;20051;-79
2024/01/19 00:03:45;;;;;;;6.85;2.08;;;;;;;;;;5120933;28;20093;-80
2024/01/19 00:06:11;;;;;;;10.05;2.22;;;;;;;;;;5108933;28;20087;-79
2024/01/19 00:08:37;;;;;;;8.82;1.88;;;;;;;;;;5107657;28;20493;-79
2024/01/19 00:11:03;;;;;;;9.25;2.08;;;;;;;;;;5105310;28;20048;-80
2024/01/19 00:13:29;;;;;;;7.97;1.75;;;;;;;;;;5108413;28;20044;-79
2024/01/19 00:15:55;;;;;;;10.02;1.80;;;;;;;;;;5119625;28;20048;-79
2024/01/19 00:18:23;;;;;;;6.95;1.80;;;;;;;;;;5107936;28;20103;-79
2024/01/19 00:20:49;;;;;;;11.18;2.42;;;;;;;;;;5117947;28;20058;-80
2024/01/19 00:23:15;;;;;;;8.18;1.90;;;;;;;;;;5102833;28;20537;-79
2024/01/19 00:25:41;;;;;;;7.97;2.28;;;;;;;;;;5102180;28;20397;-79
2024/01/19 00:28:07;;;;;;;8.73;1.85;;;;;;;;;;5101868;28;20401;-80
2024/01/19 00:30:33;;;;;;;9.23;2.00;;;;;;;;;;5102987;28;20047;-79
2024/01/19 00:32:59;;;;;;;9.85;1.75;;;;;;;;;;5102372;28;20040;-79
2024/01/19 00:35:25;;;;;;;7.78;1.83;;;;;;;;;;5108636;28;20040;-79
2024/01/19 00:37:51;;;;;;;10.93;1.95;;;;;;;;;;5102600;28;20537;-79
2024/01/19 00:40:17;;;;;;;9.20;2.42;;;;;;;;;;5110833;28;20452;-79
2024/01/19 00:42:44;;;;;;;10.73;1.95;;;;;;;;;;5112620;28;20050;-79
2024/01/19 00:45:10;;;;;;;9.15;1.90;;;;;;;;;;5121614;28;20102;-79
2024/01/19 00:47:36;;;;;;;10.07;1.95;;;;;;;;;;5119701;28;20051;-79
2024/01/19 00:50:03;;;;;;;9.70;1.92;;;;;;;;;;5110922;28;20596;-79
2024/01/19 00:52:29;;;;;;;10.50;2.20;;;;;;;;;;5100645;28;20043;-79
2024/01/19 00:54:55;;;;;;;5.95;2.13;;;;;;;;;;5110311;28;20515;-79
2024/01/19 00:57:21;;;;;;;11.07;1.95;;;;;;;;;;5112109;28;20497;-79
2024/01/19 00:59:48;;;;;;;8.95;2.00;;;;;;;;;;5115294;28;20040;-80
2024/01/19 01:02:14;;;;;;;10.95;2.13;;;;;;;;;;5084933;28;20044;-80
2024/01/19 01:04:40;;;;;;;11.98;2.03;;;;;;;;;;5106244;28;20055;-79
2024/01/19 01:07:08;;;;;;;6.22;1.85;;;;;;;;;;5114598;28;20043;-79
2024/01/19 01:09:34;;;;;;;9.52;2.28;;;;;;;;;;5112320;28;20052;-79
2024/01/19 01:12:01;;;;;;;7.85;2.28;;;;;;;;;;5116101;28;20062;-80
2024/01/19 01:14:28;;;;;;;10.40;2.78;;;;;;;;;;5102332;28;20039;-80
2024/01/19 01:16:54;;;;;;;9.88;2.75;;;;;;;;;;5119795;28;20115;-80
2024/01/19 01:19:20;;;;;;;8.85;2.25;;;;;;;;;;5101893;28;20059;-80
2024/01/19 01:21:47;;;;;;;13.02;2.25;;;;;;;;;;5107683;28;20044;-79
2024/01/19 01:24:13;;;;;;;12.90;2.95;;;;;;;;;;5110815;28;20060;-80
2024/01/19 01:26:39;;;;;;;11.20;2.38;;;;;;;;;;5115502;28;20123;-81
2024/01/19 01:29:05;;;;;;;9.80;2.17;;;;;;;;;;5122033;28;20043;-80
2024/01/19 01:31:31;;;;;;;8.57;2.00;;;;;;;;;;5120537;28;20378;-81
2024/01/19 01:33:57;;;;;;;12.77;2.30;;;;;;;;;;5103988;28;20047;-81
2024/01/19 01:36:23;;;;;;;14.75;2.47;;;;;;;;;;5111450;28;20047;-80
2024/01/19 01:38:50;;;;;;;10.98;1.90;;;;;;;;;;5113863;28;20054;-79
2024/01/19 01:41:16;;;;;;;11.38;2.50;;;;;;;;;;5105206;28;20074;-80
2024/01/19 01:43:42;;;;;;;8.50;2.10;;;;;;;;;;5119472;28;20048;-80
2024/01/19 01:46:08;;;;;;;10.60;2.20;;;;;;;;;;5121129;28;20075;-80
2024/01/19 01:48:34;;;;;;;10.13;2.25;;;;;;;;;;5087380;28;20055;-80
2024/01/19 01:51:00;;;;;;;12.57;2.33;;;;;;;;;;5122762;28;20051;-80
2024/01/19 01:53:27;;;;;;;9.32;2.50;;;;;;;;;;5121048;28;20050;-80
2024/01/19 01:55:54;;;;;;;9.20;2.42;;;;;;;;;;5108664;28;20051;-81
2024/01/19 01:58:20;;;;;;;12.07;2.47;;;;;;;;;;5100669;28;20048;-80
2024/01/19 02:00:47;;;;;;;9.10;2.00;;;;;;;;;;5102619;28;20036;-80
2024/01/19 02:03:13;;;;;;;7.65;2.00;;;;;;;;;;5104171;28;20044;-81
2024/01/19 02:05:39;;;;;;;8.50;2.03;;;;;;;;;;5113693;28;20082;-80
2024/01/19 02:08:06;;;;;;;9.88;1.88;;;;;;;;;;5105728;28;20044;-80
2024/01/19 02:10:32;;;;;;;11.23;2.20;;;;;;;;;;5123643;28;20040;-80
2024/01/19 02:12:58;;;;;;;6.45;1.77;;;;;;;;;;5120705;28;20082;-80
2024/01/19 02:15:29;;;;;;;7.15;1.67;;;;;;;;;;5121226;28;20078;-80
2024/01/19 02:17:56;;;;;;;10.05;1.77;;;;;;;;;;5125716;28;20080;-80
2024/01/19 02:20:22;;;;;;;11.35;2.53;;;;;;;;;;5113980;28;20044;-79
2024/01/19 02:22:49;;;;;;;13.57;2.15;;;;;;;;;;5105102;28;20040;-80
2024/01/19 02:25:15;;;;;;;10.55;1.73;;;;;;;;;;5114590;28;20044;-80
2024/01/19 02:27:41;;;;;;;9.25;1.65;;;;;;;;;;5118200;28;20036;-79
2024/01/19 02:30:08;;;;;;;6.07;1.40;;;;;;;;;;5104818;28;20374;-79
2024/01/19 02:32:34;;;;;;;8.52;1.52;;;;;;;;;;5110960;28;20043;-79
2024/01/19 02:35:00;;;;;;;7.80;1.60;;;;;;;;;;5111149;28;20055;-79
2024/01/19 02:37:26;;;;;;;8.70;1.48;;;;;;;;;;5109265;28;20056;-80
2024/01/19 02:39:52;;;;;;;7.60;1.35;;;;;;;;;;5105650;28;20032;-80
2024/01/19 02:42:18;;;;;;;8.23;1.85;;;;;;;;;;5113196;28;20043;-79
2024/01/19 02:44:44;;;;;;;7.68;1.25;;;;;;;;;;5116579;28;20044;-80
2024/01/19 02:47:10;;;;;;;8.88;1.50;;;;;;;;;;5123995;28;20042;-81
2024/01/19 02:49:37;;;;;;;7.15;1.63;;;;;;;;;;5112562;28;20500;-80
2024/01/19 02:52:03;;;;;;;7.85;1.60;;;;;;;;;;5105815;28;20718;-80
2024/01/19 02:54:29;;;;;;;7.10;1.40;;;;;;;;;;5108498;28;20047;-80
2024/01/19 02:56:55;;;;;;;5.43;1.35;;;;;;;;;;5103784;28;20066;-80
2024/01/19 02:59:21;;;;;;;4.97;1.60;;;;;;;;;;5106626;28;20051;-79
2024/01/19 03:01:47;;;;;;;7.78;1.75;;;;;;;;;;5104445;28;20040;-80
2024/01/19 03:04:13;;;;;;;8.50;1.95;;;;;;;;;;5116417;28;20044;-79
2024/01/19 03:06:39;;;;;;;6.78;1.92;;;;;;;;;;5106616;28;20044;-79
2024/01/19 03:09:05;;;;;;;9.80;2.00;;;;;;;;;;5109650;28;20523;-79
2024/01/19 03:11:31;;;;;;;11.10;2.22;;;;;;;;;;5116004;28;20720;-80
2024/01/19 03:13:58;;;;;;;7.88;2.20;;;;;;;;;;5110240;28;20048;-80
2024/01/19 03:16:24;;;;;;;9.85;2.22;;;;;;;;;;5112451;28;20059;-80
2024/01/19 03:18:54;;;;;;;9.93;2.15;;;;;;;;;;5123274;28;20047;-80
2024/01/19 03:21:21;;;;;;;7.03;2.43;;;;;;;;;;5110340;28;20043;-80
2024/01/19 03:23:47;;;;;;;6.45;2.20;;;;;;;;;;5122965;28;20336;-80
2024/01/19 03:26:14;;;;;;;6.38;1.88;;;;;;;;;;5111613;28;20044;-81
2024/01/19 03:28:40;;;;;;;8.25;1.77;;;;;;;;;;5117458;28;20048;-81
2024/01/19 03:31:06;;;;;;;7.57;2.00;;;;;;;;;;5108449;28;20051;-81
2024/01/19 03:33:32;;;;;;;9.95;2.35;;;;;;;;;;5104583;28;20051;-81
2024/01/19 03:35:58;;;;;;;7.50;1.88;;;;;;;;;;5110345;28;20047;-80
2024/01/19 03:38:24;;;;;;;8.85;1.90;;;;;;;;;;5117712;28;20047;-80
2024/01/19 03:40:51;;;;;;;8.90;1.88;;;;;;;;;;5105155;28;20044;-80
2024/01/19 03:43:18;;;;;;;8.25;2.05;;;;;;;;;;5111009;28;20078;-80
2024/01/19 03:45:44;;;;;;;9.65;2.15;;;;;;;;;;5119239;28;20051;-80
2024/01/19 03:48:10;;;;;;;8.77;1.75;;;;;;;;;;5124394;28;20050;-80
2024/01/19 03:50:36;;;;;;;9.75;2.10;;;;;;;;;;5123773;28;20050;-81
2024/01/19 03:53:02;;;;;;;8.80;1.88;;;;;;;;;;5111318;28;20427;-81
2024/01/19 03:55:28;;;;;;;6.20;1.45;;;;;;;;;;5110658;28;20048;-80
2024/01/19 03:57:54;;;;;;;7.47;1.40;;;;;;;;;;5107638;28;20126;-81
2024/01/19 04:00:20;;;;;;;8.18;1.27;;;;;;;;;;5103873;28;20165;-80
2024/01/19 04:02:46;;;;;;;8.10;1.20;;;;;;;;;;5113702;28;20036;-81
2024/01/19 04:05:12;;;;;;;8.05;1.30;;;;;;;;;;5115799;28;20061;-81
2024/01/19 04:07:39;;;;;;;8.82;1.35;;;;;;;;;;5102921;28;20425;-80
2024/01/19 04:10:05;;;;;;;5.50;0.95;;;;;;;;;;5107474;28;20063;-80
2024/01/19 04:12:31;;;;;;;6.10;1.00;;;;;;;;;;5119968;28;20047;-80
2024/01/19 04:14:57;;;;;;;8.40;1.27;;;;;;;;;;5104046;28;20055;-80
2024/01/19 04:17:23;;;;;;;5.22;1.13;;;;;;;;;;5103257;28;20056;-80
2024/01/19 04:19:49;;;;;;;5.20;1.00;;;;;;;;;;5104165;28;20070;-80
2024/01/19 04:22:15;;;;;;;6.72;1.13;;;;;;;;;;5109083;28;20058;-80
2024/01/19 04:24:41;;;;;;;4.88;1.08;;;;;;;;;;5115469;28;20044;-80
2024/01/19 04:27:07;;;;;;;5.88;1.20;;;;;;;;;;5103673;28;20096;-80
2024/01/19 04:29:33;;;;;;;5.03;1.05;;;;;;;;;;5103198;28;20047;-81
2024/01/19 04:31:59;;;;;;;5.53;1.00;;;;;;;;;;5102661;28;20051;-81
2024/01/19 04:34:25;;;;;;;3.75;1.10;;;;;;;;;;5117831;28;20050;-80
2024/01/19 04:36:51;;;;;;;5.85;1.20;;;;;;;;;;5120698;28;20052;-80
2024/01/19 04:39:17;;;;;;;6.32;1.40;;;;;;;;;;5108461;28;20044;-81
2024/01/19 04:41:46;;;;;;;5.97;1.05;;;;;;;;;;5103390;28;20486;-80
2024/01/19 04:44:13;;;;;;;5.50;1.00;;;;;;;;;;5111890;28;20051;-80
2024/01/19 04:46:39;;;;;;;6.28;1.13;;;;;;;;;;5121006;28;20039;-80
2024/01/19 04:49:05;;;;;;;6.60;1.17;;;;;;;;;;5117537;28;20059;-81
2024/01/19 04:51:31;;;;;;;6.07;1.30;;;;;;;;;;5122600;28;20401;-80
2024/01/19 04:54:00;;;;;;;8.38;1.38;;;;;;;;;;5113084;28;20036;-80
2024/01/19 04:56:26;;;;;;;9.85;1.88;;;;;;;;;;5104726;28;20077;-80
2024/01/19 04:58:52;;;;;;;5.45;1.40;;;;;;;;;;5103052;28;20044;-81
2024/01/19 05:01:19;;;;;;;7.28;1.17;;;;;;;;;;5110758;28;20138;-81
2024/01/19 05:03:45;;;;;;;7.90;1.20;;;;;;;;;;5103645;28;20071;-81
2024/01/19 05:06:14;;;;;;;7.80;1.30;;;;;;;;;;5113290;28;20092;-80
2024/01/19 05:08:40;;;;;;;9.02;1.33;;;;;;;;;;5115996;28;20081;-80
2024/01/19 05:11:06;;;;;;;8.23;1.40;;;;;;;;;;5119790;28;20050;-80
2024/01/19 05:13:32;;;;;;;6.28;1.42;;;;;;;;;;5119366;28;20054;-80
2024/01/19 05:15:58;;;;;;;9.25;1.38;;;;;;;;;;5113063;28;20047;-80
2024/01/19 05:18:24;;;;;;;7.22;1.20;;;;;;;;;;5117980;28;20040;-80
2024/01/19 05:20:50;;;;;;;12.15;1.38;;;;;;;;;;5121651;28;20091;-80
2024/01/19 05:23:16;;;;;;;7.40;1.10;;;;;;;;;;5119687;28;20048;-82
2024/01/19 05:25:42;;;;;;;7.30;1.13;;;;;;;;;;5111729;28;20050;-80
2024/01/19 05:28:08;;;;;;;7.60;1.50;;;;;;;;;;5109461;28;20099;-80
2024/01/19 05:30:34;;;;;;;9.82;1.60;;;;;;;;;;5114728;28;20126;-79
2024/01/19 05:33:00;;;;;;;8.70;1.40;;;;;;;;;;5115562;28;20070;-81
2024/01/19 05:35:26;;;;;;;8.38;1.75;;;;;;;;;;5113171;28;20052;-80
2024/01/19 05:37:53;;;;;;;7.38;1.17;;;;;;;;;;5120023;28;20058;-80
2024/01/19 05:40:19;;;;;;;9.75;1.67;;;;;;;;;;5119409;28;20484;-81
2024/01/19 05:42:45;;;;;;;8.52;1.30;;;;;;;;;;5120779;28;20047;-80
2024/01/19 05:45:11;;;;;;;7.00;1.40;;;;;;;;;;5105295;28;20062;-80
2024/01/19 05:47:37;;;;;;;9.13;2.08;;;;;;;;;;5121736;28;20103;-81
2024/01/19 05:50:03;;;;;;;9.35;1.60;;;;;;;;;;5116091;28;20044;-80
2024/01/19 05:52:29;;;;;;;8.63;1.40;;;;;;;;;;5108880;28;20080;-80
2024/01/19 05:54:55;;;;;;;6.60;1.40;;;;;;;;;;5107914;28;20119;-81
2024/01/19 05:57:21;;;;;;;9.77;1.40;;;;;;;;;;5106110;28;20606;-80
2024/01/19 05:59:47;;;;;;;6.63;1.17;;;;;;;;;;5121172;28;20063;-80
2024/01/19 06:02:14;;;;;;;10.63;1.48;;;;;;;;;;5102070;28;20040;-80
2024/01/19 06:04:41;;;;;;;8.35;1.38;;;;;;;;;;5108038;28;21734;-80
2024/01/19 06:07:07;;;;;;;10.10;2.20;;;;;;;;;;5108898;28;20058;-80
2024/01/19 06:09:33;;;;;;;11.38;2.00;;;;;;;;;;5118494;28;20040;-80
2024/01/19 06:11:59;;;;;;;7.90;1.60;;;;;;;;;;5120177;28;20040;-81
2024/01/19 06:14:25;;;;;;;5.05;1.27;;;;;;;;;;5105986;28;20055;-81
2024/01/19 06:16:52;;;;;;;6.88;1.58;;;;;;;;;;5101334;28;20059;-80
2024/01/19 06:19:19;;;;;;;8.70;1.65;;;;;;;;;;5121132;28;20054;-80
2024/01/19 06:21:45;;;;;;;8.43;1.55;;;;;;;;;;5117534;28;20047;-80
2024/01/19 06:24:15;;;;;;;8.35;1.52;;;;;;;;;;5111959;28;20059;-80
2024/01/19 06:26:43;;;;;;;8.90;1.92;;;;;;;;;;5116193;28;20036;-80
2024/01/19 06:29:09;;;;;;;11.23;2.08;;;;;;;;;;5100323;28;20123;-79
2024/01/19 06:31:42;;;;;;;8.43;1.70;;;;;;;;;;5101585;28;20093;-80
2024/01/19 06:34:08;;;;;;;7.25;1.85;;;;;;;;;;5104089;28;20056;-81
2024/01/19 06:36:34;;;;;;;5.97;2.15;;;;;;;;;;5117145;28;20048;-80
2024/01/19 06:39:00;;;;;;;9.70;1.85;;;;;;;;;;5102062;28;20042;-81
2024/01/19 06:41:26;;;;;;;6.95;1.55;;;;;;;;;;5119018;28;20059;-81
2024/01/19 06:43:52;;;;;;;7.38;1.70;;;;;;;;;;5121544;28;20099;-81
2024/01/19 06:46:18;;;;;;;12.38;2.20;;;;;;;;;;5120593;28;20401;-80
2024/01/19 06:48:44;;;;;;;8.98;1.65;;;;;;;;;;5122069;28;20051;-80
2024/01/19 06:51:16;;;;;;;11.82;1.88;;;;;;;;;;5124503;28;20118;-80
2024/01/19 06:53:42;;;;;;;10.45;2.00;;;;;;;;;;5124985;28;20040;-79
2024/01/19 06:56:08;;;;;;;7.00;1.70;;;;;;;;;;5109679;28;20051;-80
2024/01/19 06:58:34;;;;;;;7.40;1.65;;;;;;;;;;5119971;28;20057;-80
2024/01/19 07:01:00;;;;;;;12.23;2.35;;;;;;;;;;5115260;28;20378;-81
2024/01/19 07:03:26;;;;;;;7.10;1.75;;;;;;;;;;5113878;28;20401;-80
2024/01/19 07:05:52;;;;;;;10.45;1.77;;;;;;;;;;5110585;28;20048;-81
2024/01/19 07:08:18;;;;;;;11.00;2.03;;;;;;;;;;5111442;28;20043;-81
2024/01/19 07:10:44;;;;;;;8.38;1.40;;;;;;;;;;5107809;28;20040;-80
2024/01/19 07:13:10;;;;;;;12.15;2.03;;;;;;;;;;5114238;28;20520;-81
2024/01/19 07:15:36;;;;;;;10.32;1.70;;;;;;;;;;5115541;28;20489;-80
2024/01/19 07:18:03;;;;;;;10.77;1.88;;;;;;;;;;5108193;28;20040;-80
2024/01/19 07:20:29;;;;;;;8.95;1.50;;;;;;;;;;5124236;28;20122;-80
2024/01/19 07:22:55;;;;;;;14.68;1.40;;;;;;;;;;5114694;28;20032;-80
2024/01/19 07:25:21;;;;;;;7.45;1.25;;;;;;;;;;5108871;28;20040;-80
2024/01/19 07:27:47;;;;;;;7.38;1.00;;;;;;;;;;5110620;28;20409;-81
2024/01/19 07:30:13;;;;;;;6.65;1.00;;;;;;;;;;5107980;28;20472;-80
2024/01/19 07:32:39;;;;;;;6.90;1.00;;;;;;;;;;5107062;28;20049;-80
2024/01/19 07:35:05;;;;;;;7.75;1.38;;;;;;;;;;5124424;28;20047;-81
2024/01/19 07:37:31;;;;;;;9.55;1.60;;;;;;;;;;5111952;28;20040;-81
2024/01/19 07:39:57;;;;;;;11.88;1.60;;;;;;;;;;5103461;28;20097;-81
2024/01/19 07:42:23;;;;;;;10.38;2.47;;;;;;;;;;5107721;28;20039;-80
2024/01/19 07:44:49;;;;;;;10.55;2.55;;;;;;;;;;5123696;28;20372;-81
2024/01/19 07:47:15;;;;;;;12.75;2.97;;;;;;;;;;5107008;28;20397;-81
2024/01/19 07:49:41;;;;;;;9.18;2.97;;;;;;;;;;5102981;28;20088;-80
2024/01/19 07:52:07;;;;;;;13.88;2.97;;;;;;;;;;5118267;28;20063;-80
2024/01/19 07:54:33;;;;;;;18.15;2.40;;;;;;;;;;5122422;28;20039;-80
2024/01/19 07:56:59;;;;;;;10.27;2.38;;;;;;;;;;5114845;28;20043;-80
2024/01/19 07:59:25;;;;;;;10.88;2.28;;;;;;;;;;5115700;28;20040;-80
2024/01/19 08:01:51;;;;;;;10.65;1.80;;;;;;;;;;5115936;28;20051;-80
2024/01/19 08:04:18;;;;;;;11.65;1.88;;;;;;;;;;5112687;28;20073;-81
2024/01/19 08:06:44;;;;;;;9.95;2.35;;;;;;;;;;5104521;28;20461;-80
2024/01/19 08:09:13;;;;;;;14.45;2.00;;;;;;;;;;5102606;28;20048;-81
2024/01/19 08:11:39;;;;;;;14.38;2.47;;;;;;;;;;5113814;28;20043;-80
2024/01/19 08:14:05;;;;;;;10.23;2.55;;;;;;;;;;5102104;28;20117;-81
2024/01/19 08:16:31;;;;;;;16.75;2.92;;;;;;;;;;5114518;28;20064;-80
2024/01/19 08:18:57;;;;;;;10.65;2.30;;;;;;;;;;5109140;28;20059;-80
2024/01/19 08:21:23;;;;;;;10.27;1.70;;;;;;;;;;5110580;28;20089;-80
2024/01/19 08:23:50;;;;;;;12.18;2.40;;;;;;;;;;5119121;28;20055;-81
2024/01/19 08:26:16;;;;;;;8.98;2.15;;;;;;;;;;5107871;28;20047;-80
2024/01/19 08:28:45;;;;;;;9.10;2.13;;;;;;;;;;5109649;28;20123;-80
2024/01/19 08:31:14;;;;;;;8.98;1.77;;;;;;;;;;5102712;28;20066;-81
2024/01/19 08:33:40;;;;;;;9.38;1.50;;;;;;;;;;5109582;28;20089;-81
2024/01/19 08:36:06;;;;;;;10.88;1.98;;;;;;;;;;5122256;28;20051;-80
2024/01/19 08:38:33;;;;;;;12.52;2.60;;;;;;;;;;5115150;28;20044;-80
2024/01/19 08:40:59;;;;;;;6.82;1.60;;;;;;;;;;5112448;28;20119;-80
2024/01/19 08:43:25;;;;;;;10.20;1.70;;;;;;;;;;5103416;28;20048;-80
2024/01/19 08:45:51;;;;;;;13.82;2.08;;;;;;;;;;5104247;28;20044;-81
2024/01/19 08:48:17;;;;;;;7.18;1.50;;;;;;;;;;5101752;28;20089;-81
2024/01/19 08:50:44;;;;;;;6.38;1.73;;;;;;;;;;5101990;28;20131;-79
2024/01/19 08:53:10;;;;;;;11.05;1.80;;;;;;;;;;5117883;28;20491;-81
2024/01/19 08:55:39;;;;;;;9.75;2.25;;;;;;;;;;5121038;28;20066;-80
2024/01/19 08:58:05;;;;;;;7.60;1.60;;;;;;;;;;5102504;28;20481;-80
2024/01/19 09:00:31;;;;;;;9.77;2.75;;;;;;;;;;5116756;28;20132;-80
2024/01/19 09:02:58;;;;;;;10.45;3.30;;;;;;;;;;5115830;28;20054;-80
2024/01/19 09:05:24;;;;;;;11.70;3.63;;;;;;;;;;5100930;28;20069;-81
2024/01/19 09:07:50;;;;;;;7.68;2.83;;;;;;;;;;5108702;28;20479;-80
2024/01/19 09:10:16;;;;;;;13.82;3.58;;;;;;;;;;5102183;28;20508;-80
2024/01/19 09:12:42;;;;;;;11.10;3.13;;;;;;;;;;5113968;28;20471;-80
2024/01/19 09:15:08;;;;;;;6.72;2.20;;;;;;;;;;5104383;28;20074;-80
2024/01/19 09:17:34;;;;;;;8.07;1.60;;;;;;;;;;5107398;28;20055;-81
2024/01/19 09:20:03;;;;;;;13.55;2.20;;;;;;;;;;5120206;28;20047;-81
2024/01/19 09:22:29;;;;;;;13.05;1.92;;;;;;;;;;5100812;28;20069;-81
2024/01/19 09:24:55;;;;;;;9.50;1.85;;;;;;;;;;5111875;28;20093;-80
2024/01/19 09:27:21;;;;;;;7.88;1.90;;;;;;;;;;5113410;28;20043;-81
2024/01/19 09:29:48;;;;;;;11.98;2.28;;;;;;;;;;5114728;28;20048;-80
2024/01/19 09:32:16;;;;;;;13.30;2.00;;;;;;;;;;5110802;28;20051;-81
2024/01/19 09:34:43;;;;;;;11.25;1.90;;;;;;;;;;5119573;28;20047;-80
2024/01/19 09:37:10;;;;;;;7.30;2.30;;;;;;;;;;5110508;28;20035;-80
2024/01/19 09:39:36;;;;;;;10.30;2.83;;;;;;;;;;5104759;28;20485;-80
2024/01/19 09:42:09;;;;;;;9.93;2.97;;;;;;;;;;5119158;28;20067;-80
2024/01/19 09:44:36;;;;;;;9.80;3.58;;;;;;;;;;5118636;28;20496;-80
2024/01/19 09:47:20;;;;;;;11.65;3.33;;;;;;;;;;5111806;28;20500;-80
2024/01/19 09:49:49;;;;;;;10.13;3.28;;;;;;;;;;5113139;28;20044;-80
2024/01/19 09:52:15;;;;;;;9.50;2.45;;;;;;;;;;5101144;28;20043;-81
2024/01/19 09:54:41;;;;;;;10.63;2.55;;;;;;;;;;5100791;28;20109;-80
2024/01/19 09:57:08;;;;;;;9.05;2.10;;;;;;;;;;5103891;28;20047;-80
2024/01/19 09:59:34;;;;;;;10.38;2.25;;;;;;;;;;5115006;28;20035;-79
2024/01/19 10:02:00;;;;;;;11.73;2.17;;;;;;;;;;5108342;28;20052;-80
2024/01/19 10:04:27;;;;;;;7.85;1.90;;;;;;;;;;5105667;28;20040;-80
2024/01/19 10:06:54;;;;;;;11.80;2.75;;;;;;;;;;5100532;28;20054;-80
2024/01/19 10:09:20;;;;;;;13.38;3.58;;;;;;;;;;5102126;28;20048;-80
2024/01/19 10:11:47;;;;;;;10.35;2.80;;;;;;;;;;5119253;28;20369;-80
2024/01/19 10:14:13;;;;;;;14.05;3.20;;;;;;;;;;5120067;28;20251;-81
2024/01/19 10:16:39;;;;;;;14.32;3.25;;;;;;;;;;5118410;28;20055;-80
2024/01/19 10:19:08;;;;;;;12.02;2.92;;;;;;;;;;5110110;28;20052;-80
2024/01/19 10:21:34;;;;;;;13.07;3.30;;;;;;;;;;5119613;28;20444;-79
2024/01/19 10:24:11;;;;;;;10.90;2.38;;;;;;;;;;5108666;28;20040;-80
2024/01/19 10:26:37;;;;;;;10.27;2.47;;;;;;;;;;5123528;28;20108;-81
2024/01/19 10:29:13;;;;;;;12.25;3.15;;;;;;;;;;5088445;28;20060;-80
2024/01/19 10:31:41;;;;;;;13.10;3.42;;;;;;;;;;5120136;28;20052;-81
2024/01/19 10:34:15;;;;;;;14.63;3.30;;;;;;;;;;5113671;28;20423;-81
2024/01/19 10:36:42;;;;;;;11.43;2.88;;;;;;;;;;5109082;28;20048;-80
2024/01/19 10:39:29;;;;;;;11.15;2.97;;;;;;;;;;5105316;28;20052;-80
2024/01/19 10:42:08;;;;;;;15.32;2.47;;;;;;;;;;5111097;28;20344;-80
2024/01/19 10:44:34;;;;;;;10.50;2.80;;;;;;;;;;5119995;28;20613;-80
2024/01/19 10:47:00;;;;;;;14.27;2.88;;;;;;;;;;5117803;28;20044;-80
2024/01/19 10:49:27;;;;;;;13.20;2.45;;;;;;;;;;5117252;28;20151;-80
2024/01/19 10:51:55;;;;;;;12.05;2.92;;;;;;;;;;5124397;28;20067;-79
2024/01/19 10:54:25;;;;;;;14.20;3.40;;;;;;;;;;5108688;28;20048;-81
2024/01/19 10:57:02;;;;;;;11.80;2.97;;;;;;;;;;5121742;28;20040;-80
2024/01/19 10:59:29;;;;;;;10.15;2.58;;;;;;;;;;5124944;28;20047;-80
2024/01/19 11:01:58;;;;;;;11.75;3.20;;;;;;;;;;5118952;28;20083;-81
2024/01/19 11:04:25;;;;;;;10.82;2.90;;;;;;;;;;5117814;28;20051;-80
2024/01/19 11:06:51;;;;;;;14.98;3.25;;;;;;;;;;5116821;28;20065;-81
2024/01/19 11:09:17;;;;;;;12.02;3.20;;;;;;;;;;5117298;28;20054;-80
2024/01/19 11:11:47;;;;;;;12.95;3.10;;;;;;;;;;5119110;28;20051;-80
2024/01/19 11:14:17;;;;;;;11.75;2.75;;;;;;;;;;5110100;28;20055;-80
2024/01/19 11:16:46;;;;;;;12.60;2.78;;;;;;;;;;5118454;28;20127;-79
2024/01/19 11:19:13;;;;;;;12.52;2.97;;;;;;;;;;5114920;28;20038;-80
2024/01/19 11:21:41;;;;;;;13.15;2.95;;;;;;;;;;5106944;28;20040;-80
2024/01/19 11:24:07;;;;;;;11.00;3.05;;;;;;;;;;5101875;28;20044;-79
2024/01/19 11:26:37;;;;;;;12.48;3.00;;;;;;;;;;5119123;28;20048;-80
2024/01/19 11:29:10;;;;;;;15.82;3.22;;;;;;;;;;5102768;28;20044;-81
2024/01/19 11:31:36;;;;;;;11.13;2.83;;;;;;;;;;5115997;28;20050;-79
2024/01/19 11:34:03;;;;;;;12.60;3.10;;;;;;;;;;5117223;28;20038;-80
2024/01/19 11:36:43;;;;;;;17.63;3.40;;;;;;;;;;5119079;28;20067;-80
2024/01/19 11:39:09;;;;;;;12.43;2.88;;;;;;;;;;5124673;28;20138;-80
2024/01/19 11:41:36;;;;;;;18.10;6.70;;;;;;;;;;5122864;28;20044;-79
2024/01/19 11:44:03;;;;;;;14.60;3.17;;;;;;;;;;5124395;28;20495;-80
2024/01/19 11:46:45;;;;;;;9.75;2.40;;;;;;;;;;5108014;28;20115;-80
2024/01/19 11:49:30;;;;;;;11.45;2.90;;;;;;;;;;5103487;28;20044;-80
2024/01/19 11:51:57;;;;;;;10.93;2.42;;;;;;;;;;5123370;28;20047;-81
2024/01/19 11:54:26;;;;;;;14.00;2.65;;;;;;;;;;5123760;28;20048;-81
2024/01/19 11:56:52;;;;;;;15.10;2.50;;;;;;;;;;5121098;28;20035;-81
2024/01/19 11:59:22;;;;;;;9.75;2.20;;;;;;;;;;5109854;28;20081;-81
2024/01/19 12:01:48;;;;;;;13.63;2.78;;;;;;;;;;5117207;28;20062;-81
2024/01/19 12:04:15;;;;;;;10.40;2.70;;;;;;;;;;5121302;28;20078;-80
2024/01/19 12:06:41;;;;;;;9.82;2.50;;;;;;;;;;5101803;28;20044;-81
2024/01/19 12:09:09;;;;;;;9.63;2.50;;;;;;;;;;5110654;28;20039;-81
2024/01/19 12:11:35;;;;;;;13.10;3.40;;;;;;;;;;5100301;28;20452;-81
2024/01/19 12:14:03;;;;;;;12.05;2.75;;;;;;;;;;5102374;28;20048;-81
2024/01/19 12:16:32;;;;;;;11.02;2.22;;;;;;;;;;5100991;28;20064;-81
2024/01/19 12:18:58;;;;;;;10.75;2.60;;;;;;;;;;5101041;28;20071;-82
2024/01/19 12:21:25;;;;;;;11.32;2.28;;;;;;;;;;5106857;28;20051;-80
2024/01/19 12:23:58;;;;;;;8.60;2.25;;;;;;;;;;5111875;28;20048;-81
2024/01/19 12:26:24;;;;;;;12.27;2.10;;;;;;;;;;5114754;28;20048;-81
2024/01/19 12:28:51;;;;;;;8.57;2.40;;;;;;;;;;5109341;28;20039;-81
2024/01/19 12:31:24;;;;;;;12.05;2.53;;;;;;;;;;5117403;28;20119;-82
2024/01/19 12:33:51;;;;;;;13.68;2.50;;;;;;;;;;5099418;28;20056;-81
2024/01/19 12:36:17;;;;;;;11.57;2.13;;;;;;;;;;5100648;28;20066;-82
2024/01/19 12:38:44;;;;;;;12.55;2.35;;;;;;;;;;5111764;28;20043;-81
2024/01/19 12:41:17;;;;;;;11.40;2.40;;;;;;;;;;5099223;28;20048;-81
2024/01/19 12:43:43;;;;;;;14.60;2.80;;;;;;;;;;5101717;28;20124;-82
2024/01/19 12:46:10;;;;;;;8.90;1.98;;;;;;;;;;5106476;28;20119;-83
2024/01/19 12:48:36;;;;;;;9.90;2.20;;;;;;;;;;5115424;27;20036;-82
2024/01/19 12:51:06;;;;;;;12.57;2.35;;;;;;;;;;5103028;28;20485;-81
2024/01/19 12:53:32;;;;;;;14.32;2.20;;;;;;;;;;5121928;28;20097;-82
2024/01/19 12:56:00;;;;;;;8.13;2.22;;;;;;;;;;5108666;28;20036;-82
2024/01/19 12:58:26;;;;;;;16.55;2.20;;;;;;;;;;5100911;28;20562;-81
2024/01/19 13:00:52;;;;;;;8.82;2.17;;;;;;;;;;5102427;28;20100;-81
2024/01/19 13:03:20;;;;;;;10.02;2.13;;;;;;;;;;5105845;28;20052;-82
2024/01/19 13:05:46;;;;;;;12.70;2.45;;;;;;;;;;5102945;28;20509;-81
2024/01/19 13:08:18;;;;;;;12.73;2.05;;;;;;;;;;5115795;28;20077;-81
2024/01/19 13:10:44;;;;;;;14.20;2.25;;;;;;;;;;5121983;28;20048;-81
2024/01/19 13:13:11;;;;;;;13.50;2.50;;;;;;;;;;5103764;28;20071;-82
2024/01/19 13:15:37;;;;;;;15.30;2.45;;;;;;;;;;5120321;28;20077;-81
2024/01/19 13:18:10;;;;;;;13.88;2.25;;;;;;;;;;5120980;28;20044;-81
2024/01/19 13:20:37;;;;;;;10.98;2.13;;;;;;;;;;5118764;28;20044;-81
2024/01/19 13:23:03;;;;;;;9.60;2.08;;;;;;;;;;5100885;28;20044;-81
2024/01/19 13:25:29;;;;;;;12.65;2.42;;;;;;;;;;5101510;28;20373;-81
2024/01/19 13:27:57;;;;;;;10.80;2.10;;;;;;;;;;5098635;28;20060;-81
2024/01/19 13:30:25;;;;;;;11.07;2.47;;;;;;;;;;5106210;28;20035;-81
2024/01/19 13:32:51;;;;;;;12.48;3.17;;;;;;;;;;5107854;28;20059;-82
2024/01/19 13:35:17;;;;;;;10.70;2.13;;;;;;;;;;5105551;28;20044;-81
2024/01/19 13:37:43;;;;;;;15.88;2.08;;;;;;;;;;5108896;28;20052;-82
2024/01/19 13:40:11;;;;;;;13.73;2.28;;;;;;;;;;5100518;28;20122;-82
2024/01/19 13:42:37;;;;;;;19.23;2.25;;;;;;;;;;5100022;28;20198;-81
2024/01/19 13:45:09;;;;;;;8.63;1.70;;;;;;;;;;5100778;28;20096;-81
2024/01/19 13:47:35;;;;;;;11.00;2.00;;;;;;;;;;5101872;28;20389;-81
2024/01/19 13:50:02;;;;;;;8.95;1.90;;;;;;;;;;5100374;28;20097;-81
2024/01/19 13:52:28;;;;;;;11.23;2.00;;;;;;;;;;5100455;28;20052;-81
2024/01/19 13:54:54;;;;;;;12.27;2.13;;;;;;;;;;5119229;28;20404;-81
2024/01/19 13:57:20;;;;;;;11.23;1.83;;;;;;;;;;5120712;28;20055;-81
2024/01/19 13:59:46;;;;;;;11.65;1.48;;;;;;;;;;5112403;28;20040;-81
2024/01/19 14:02:13;;;;;;;11.15;1.77;;;;;;;;;;5109873;28;20462;-80
2024/01/19 14:04:39;;;;;;;13.30;2.00;;;;;;;;;;5118735;28;20474;-80
2024/01/19 14:07:07;;;;;;;7.50;1.85;;;;;;;;;;5102926;28;20392;-80
2024/01/19 14:09:34;;;;;;;7.80;1.42;;;;;;;;;;5112568;28;20453;-80
2024/01/19 14:12:04;;;;;;;12.20;2.05;;;;;;;;;;5123483;28;20063;-80
2024/01/19 14:14:30;;;;;;;10.85;1.85;;;;;;;;;;5122096;28;20048;-80
2024/01/19 14:17:05;;;;;;;8.43;2.00;;;;;;;;;;5122552;28;20127;-80
2024/01/19 14:19:32;;;;;;;13.02;2.13;;;;;;;;;;5123201;28;20047;-80
2024/01/19 14:21:58;;;;;;;12.85;2.00;;;;;;;;;;5123135;28;20059;-80
2024/01/19 14:24:24;;;;;;;10.43;2.13;;;;;;;;;;5105403;28;20058;-80
2024/01/19 14:26:50;;;;;;;11.30;2.33;;;;;;;;;;5102154;28;20044;-80
2024/01/19 14:29:16;;;;;;;13.52;2.90;;;;;;;;;;5102291;28;20063;-80
2024/01/19 14:31:43;;;;;;;15.75;1.90;;;;;;;;;;5114677;28;20052;-80
2024/01/19 14:34:09;;;;;;;11.00;2.10;;;;;;;;;;5121588;28;20039;-79